sensor_id;sensor_type;location;lat;lon;timestamp;P1;durP1;ratioP1;P2;durP2;ratioP2
58878;SDS011;44660;42.664;23.266;2023-08-31T00:02:22;4.63;;;1.45;;
58878;SDS011;44660;42.664;23.266;2023-08-31T00:04:50;5.20;;;1.70;;
58878;SDS011;44660;42.664;23.266;2023-08-31T00:07:17;2.88;;;1.55;;
58878;SDS011;44660;42.664;23.266;2023-08-31T00:09:42;3.70;;;1.70;;
58878;SDS011;44660;42.664;23.266;2023-08-31T00:12:08;4.75;;;2.08;;
58878;SDS011;44660;42.664;23.266;2023-08-31T00:14:33;3.63;;;1.83;;
58878;SDS011;44660;42.664;23.266;2023-08-31T00:16:59;5.75;;;1.70;;
58878;SDS011;44660;42.664;23.266;2023-08-31T00:19:25;5.72;;;1.80;;
58878;SDS011;44660;42.664;23.266;2023-08-31T00:21:50;5.72;;;1.77;;
58878;SDS011;44660;42.664;23.266;2023-08-31T00:24:16;7.07;;;1.90;;
58878;SDS011;44660;42.664;23.266;2023-08-31T00:26:41;4.82;;;1.77;;
58878;SDS011;44660;42.664;23.266;2023-08-31T00:29:10;3.28;;;1.67;;
58878;SDS011;44660;42.664;23.266;2023-08-31T00:31:36;3.95;;;1.95;;
58878;SDS011;44660;42.664;23.266;2023-08-31T00:34:03;6.38;;;1.80;;
58878;SDS011;44660;42.664;23.266;2023-08-31T00:36:30;4.57;;;1.83;;
58878;SDS011;44660;42.664;23.266;2023-08-31T00:38:56;4.65;;;1.92;;
58878;SDS011;44660;42.664;23.266;2023-08-31T00:41:22;3.90;;;1.63;;
58878;SDS011;44660;42.664;23.266;2023-08-31T00:43:47;3.72;;;1.52;;
58878;SDS011;44660;42.664;23.266;2023-08-31T00:46:13;4.10;;;1.48;;
58878;SDS011;44660;42.664;23.266;2023-08-31T00:48:39;3.80;;;1.48;;
58878;SDS011;44660;42.664;23.266;2023-08-31T00:51:05;4.60;;;1.70;;
58878;SDS011;44660;42.664;23.266;2023-08-31T00:53:32;3.47;;;1.50;;
58878;SDS011;44660;42.664;23.266;2023-08-31T00:55:58;6.25;;;1.50;;
58878;SDS011;44660;42.664;23.266;2023-08-31T00:58:24;4.90;;;1.70;;
58878;SDS011;44660;42.664;23.266;2023-08-31T01:01:08;6.43;;;1.70;;
58878;SDS011;44660;42.664;23.266;2023-08-31T01:04:41;4.75;;;1.95;;
58878;SDS011;44660;42.664;23.266;2023-08-31T01:09:43;4.85;;;1.80;;
58878;SDS011;44660;42.664;23.266;2023-08-31T01:15:12;4.67;;;1.70;;
58878;SDS011;44660;42.664;23.266;2023-08-31T01:17:41;3.65;;;1.70;;
58878;SDS011;44660;42.664;23.266;2023-08-31T01:20:11;2.92;;;1.42;;
58878;SDS011;44660;42.664;23.266;2023-08-31T01:22:47;4.15;;;1.50;;
58878;SDS011;44660;42.664;23.266;2023-08-31T01:25:20;4.45;;;1.80;;
58878;SDS011;44660;42.664;23.266;2023-08-31T01:27:46;2.53;;;1.63;;
58878;SDS011;44660;42.664;23.266;2023-08-31T01:30:12;4.68;;;1.90;;
58878;SDS011;44660;42.664;23.266;2023-08-31T01:32:37;6.75;;;1.98;;
58878;SDS011;44660;42.664;23.266;2023-08-31T01:35:10;4.35;;;1.90;;
58878;SDS011;44660;42.664;23.266;2023-08-31T01:43:33;4.25;;;1.58;;
58878;SDS011;44660;42.664;23.266;2023-08-31T01:46:00;5.78;;;2.08;;
58878;SDS011;44660;42.664;23.266;2023-08-31T01:48:26;4.05;;;1.80;;
58878;SDS011;44660;42.664;23.266;2023-08-31T01:50:52;11.75;;;7.50;;
58878;SDS011;44660;42.664;23.266;2023-08-31T01:53:17;35.15;;;21.50;;
58878;SDS011;44660;42.664;23.266;2023-08-31T01:55:43;31.65;;;22.27;;
58878;SDS011;44660;42.664;23.266;2023-08-31T01:58:08;16.17;;;9.27;;
58878;SDS011;44660;42.664;23.266;2023-08-31T02:00:34;9.25;;;4.28;;
58878;SDS011;44660;42.664;23.266;2023-08-31T02:03:00;10.13;;;2.10;;
58878;SDS011;44660;42.664;23.266;2023-08-31T02:05:26;3.60;;;1.80;;
58878;SDS011;44660;42.664;23.266;2023-08-31T02:07:52;6.35;;;2.25;;
58878;SDS011;44660;42.664;23.266;2023-08-31T02:10:17;6.35;;;2.10;;
58878;SDS011;44660;42.664;23.266;2023-08-31T02:12:43;8.10;;;1.90;;
58878;SDS011;44660;42.664;23.266;2023-08-31T02:15:08;7.32;;;2.20;;
58878;SDS011;44660;42.664;23.266;2023-08-31T02:17:34;5.85;;;1.80;;
58878;SDS011;44660;42.664;23.266;2023-08-31T02:20:00;8.25;;;2.30;;
58878;SDS011;44660;42.664;23.266;2023-08-31T02:22:29;3.97;;;1.70;;
58878;SDS011;44660;42.664;23.266;2023-08-31T02:24:56;4.43;;;1.63;;
58878;SDS011;44660;42.664;23.266;2023-08-31T02:27:21;4.47;;;1.73;;
58878;SDS011;44660;42.664;23.266;2023-08-31T02:29:47;8.30;;;1.83;;
58878;SDS011;44660;42.664;23.266;2023-08-31T02:32:12;7.78;;;2.55;;
58878;SDS011;44660;42.664;23.266;2023-08-31T02:34:37;4.47;;;1.90;;
58878;SDS011;44660;42.664;23.266;2023-08-31T02:37:03;4.40;;;1.88;;
58878;SDS011;44660;42.664;23.266;2023-08-31T02:39:29;4.15;;;1.83;;
58878;SDS011;44660;42.664;23.266;2023-08-31T02:41:55;4.80;;;1.77;;
58878;SDS011;44660;42.664;23.266;2023-08-31T02:44:20;4.65;;;1.60;;
58878;SDS011;44660;42.664;23.266;2023-08-31T02:46:46;6.15;;;1.90;;
58878;SDS011;44660;42.664;23.266;2023-08-31T02:49:11;5.05;;;1.70;;
58878;SDS011;44660;42.664;23.266;2023-08-31T02:51:37;6.28;;;1.80;;
58878;SDS011;44660;42.664;23.266;2023-08-31T02:54:02;6.43;;;1.98;;
58878;SDS011;44660;42.664;23.266;2023-08-31T02:56:29;5.57;;;2.08;;
58878;SDS011;44660;42.664;23.266;2023-08-31T02:58:55;5.57;;;2.00;;
58878;SDS011;44660;42.664;23.266;2023-08-31T03:01:21;8.25;;;2.20;;
58878;SDS011;44660;42.664;23.266;2023-08-31T03:03:48;6.13;;;2.40;;
58878;SDS011;44660;42.664;23.266;2023-08-31T03:06:13;10.23;;;2.20;;
58878;SDS011;44660;42.664;23.266;2023-08-31T03:08:40;6.32;;;1.92;;
58878;SDS011;44660;42.664;23.266;2023-08-31T03:11:06;5.93;;;1.90;;
58878;SDS011;44660;42.664;23.266;2023-08-31T03:13:32;3.92;;;1.77;;
58878;SDS011;44660;42.664;23.266;2023-08-31T03:15:58;5.55;;;1.90;;
58878;SDS011;44660;42.664;23.266;2023-08-31T03:18:24;6.07;;;2.10;;
58878;SDS011;44660;42.664;23.266;2023-08-31T03:20:50;4.50;;;2.10;;
58878;SDS011;44660;42.664;23.266;2023-08-31T03:23:16;3.88;;;2.05;;
58878;SDS011;44660;42.664;23.266;2023-08-31T03:25:41;4.53;;;2.10;;
58878;SDS011;44660;42.664;23.266;2023-08-31T03:28:07;6.18;;;1.92;;
58878;SDS011;44660;42.664;23.266;2023-08-31T03:30:33;5.32;;;2.10;;
58878;SDS011;44660;42.664;23.266;2023-08-31T03:32:59;4.55;;;2.33;;
58878;SDS011;44660;42.664;23.266;2023-08-31T03:35:24;6.22;;;2.50;;
58878;SDS011;44660;42.664;23.266;2023-08-31T03:37:55;10.32;;;2.60;;
58878;SDS011;44660;42.664;23.266;2023-08-31T03:40:21;7.70;;;3.38;;
58878;SDS011;44660;42.664;23.266;2023-08-31T03:42:47;6.00;;;2.17;;
58878;SDS011;44660;42.664;23.266;2023-08-31T03:45:13;6.18;;;2.38;;
58878;SDS011;44660;42.664;23.266;2023-08-31T03:47:38;5.93;;;2.40;;
58878;SDS011;44660;42.664;23.266;2023-08-31T03:50:04;7.72;;;2.08;;
58878;SDS011;44660;42.664;23.266;2023-08-31T03:52:30;5.95;;;2.13;;
58878;SDS011;44660;42.664;23.266;2023-08-31T03:54:56;29.17;;;16.67;;
58878;SDS011;44660;42.664;23.266;2023-08-31T03:57:21;32.92;;;19.98;;
58878;SDS011;44660;42.664;23.266;2023-08-31T03:59:47;26.98;;;17.52;;
58878;SDS011;44660;42.664;23.266;2023-08-31T04:02:12;11.23;;;5.50;;
58878;SDS011;44660;42.664;23.266;2023-08-31T04:04:38;26.20;;;14.40;;
58878;SDS011;44660;42.664;23.266;2023-08-31T04:07:03;27.35;;;15.00;;
58878;SDS011;44660;42.664;23.266;2023-08-31T04:09:30;19.60;;;11.25;;
58878;SDS011;44660;42.664;23.266;2023-08-31T04:11:55;11.85;;;6.15;;
58878;SDS011;44660;42.664;23.266;2023-08-31T04:14:21;28.42;;;14.48;;
58878;SDS011;44660;42.664;23.266;2023-08-31T04:16:46;19.48;;;9.07;;
58878;SDS011;44660;42.664;23.266;2023-08-31T04:19:15;24.95;;;12.82;;
58878;SDS011;44660;42.664;23.266;2023-08-31T04:21:41;13.60;;;5.07;;
58878;SDS011;44660;42.664;23.266;2023-08-31T04:24:07;9.68;;;4.30;;
58878;SDS011;44660;42.664;23.266;2023-08-31T04:26:32;10.10;;;4.20;;
58878;SDS011;44660;42.664;23.266;2023-08-31T04:28:58;8.90;;;3.42;;
58878;SDS011;44660;42.664;23.266;2023-08-31T04:31:23;20.35;;;11.40;;
58878;SDS011;44660;42.664;23.266;2023-08-31T04:33:49;8.35;;;4.30;;
58878;SDS011;44660;42.664;23.266;2023-08-31T04:36:18;7.40;;;2.85;;
58878;SDS011;44660;42.664;23.266;2023-08-31T04:38:44;5.32;;;2.80;;
58878;SDS011;44660;42.664;23.266;2023-08-31T04:41:10;12.80;;;6.05;;
58878;SDS011;44660;42.664;23.266;2023-08-31T04:43:36;10.65;;;3.40;;
58878;SDS011;44660;42.664;23.266;2023-08-31T04:46:01;9.25;;;3.08;;
58878;SDS011;44660;42.664;23.266;2023-08-31T04:48:28;9.10;;;3.20;;
58878;SDS011;44660;42.664;23.266;2023-08-31T04:50:55;8.48;;;2.90;;
58878;SDS011;44660;42.664;23.266;2023-08-31T04:53:22;10.75;;;3.05;;
58878;SDS011;44660;42.664;23.266;2023-08-31T04:55:47;5.07;;;2.58;;
58878;SDS011;44660;42.664;23.266;2023-08-31T04:58:13;10.30;;;2.90;;
58878;SDS011;44660;42.664;23.266;2023-08-31T05:00:38;9.48;;;2.88;;
58878;SDS011;44660;42.664;23.266;2023-08-31T05:03:04;7.05;;;3.45;;
58878;SDS011;44660;42.664;23.266;2023-08-31T05:05:30;8.30;;;2.80;;
58878;SDS011;44660;42.664;23.266;2023-08-31T05:07:55;6.90;;;2.80;;
58878;SDS011;44660;42.664;23.266;2023-08-31T05:10:20;8.38;;;2.72;;
58878;SDS011;44660;42.664;23.266;2023-08-31T05:12:46;6.88;;;3.13;;
58878;SDS011;44660;42.664;23.266;2023-08-31T05:15:11;6.55;;;2.97;;
58878;SDS011;44660;42.664;23.266;2023-08-31T05:17:37;7.35;;;2.90;;
58878;SDS011;44660;42.664;23.266;2023-08-31T05:20:02;12.07;;;3.22;;
58878;SDS011;44660;42.664;23.266;2023-08-31T05:22:29;6.80;;;2.80;;
58878;SDS011;44660;42.664;23.266;2023-08-31T05:24:55;5.82;;;2.92;;
58878;SDS011;44660;42.664;23.266;2023-08-31T05:27:21;10.35;;;3.20;;
58878;SDS011;44660;42.664;23.266;2023-08-31T05:29:46;9.82;;;2.90;;
58878;SDS011;44660;42.664;23.266;2023-08-31T05:32:12;12.10;;;2.63;;
58878;SDS011;44660;42.664;23.266;2023-08-31T05:34:37;7.32;;;2.72;;
58878;SDS011;44660;42.664;23.266;2023-08-31T05:37:04;9.40;;;2.33;;
58878;SDS011;44660;42.664;23.266;2023-08-31T05:39:30;10.00;;;2.20;;
58878;SDS011;44660;42.664;23.266;2023-08-31T05:41:57;5.18;;;1.90;;
58878;SDS011;44660;42.664;23.266;2023-08-31T05:44:22;5.28;;;1.77;;
58878;SDS011;44660;42.664;23.266;2023-08-31T05:46:48;9.75;;;2.00;;
58878;SDS011;44660;42.664;23.266;2023-08-31T05:49:13;6.40;;;1.83;;
58878;SDS011;44660;42.664;23.266;2023-08-31T05:51:39;3.70;;;1.52;;
58878;SDS011;44660;42.664;23.266;2023-08-31T05:54:04;4.28;;;1.80;;
58878;SDS011;44660;42.664;23.266;2023-08-31T05:56:30;5.63;;;2.38;;
58878;SDS011;44660;42.664;23.266;2023-08-31T05:58:56;3.60;;;1.70;;
58878;SDS011;44660;42.664;23.266;2023-08-31T06:01:21;6.93;;;1.50;;
58878;SDS011;44660;42.664;23.266;2023-08-31T06:03:47;5.57;;;1.60;;
58878;SDS011;44660;42.664;23.266;2023-08-31T06:06:13;6.18;;;1.70;;
58878;SDS011;44660;42.664;23.266;2023-08-31T06:08:39;6.20;;;1.60;;
58878;SDS011;44660;42.664;23.266;2023-08-31T06:11:07;4.07;;;1.70;;
58878;SDS011;44660;42.664;23.266;2023-08-31T06:13:33;5.75;;;1.80;;
58878;SDS011;44660;42.664;23.266;2023-08-31T06:15:58;10.68;;;1.83;;
58878;SDS011;44660;42.664;23.266;2023-08-31T06:18:24;6.70;;;1.92;;
58878;SDS011;44660;42.664;23.266;2023-08-31T06:20:51;7.55;;;1.70;;
58878;SDS011;44660;42.664;23.266;2023-08-31T06:23:16;6.63;;;2.05;;
58878;SDS011;44660;42.664;23.266;2023-08-31T06:25:42;8.02;;;2.10;;
58878;SDS011;44660;42.664;23.266;2023-08-31T06:28:07;4.93;;;1.60;;
58878;SDS011;44660;42.664;23.266;2023-08-31T06:30:36;7.10;;;1.98;;
58878;SDS011;44660;42.664;23.266;2023-08-31T06:33:02;6.40;;;2.10;;
58878;SDS011;44660;42.664;23.266;2023-08-31T06:35:27;5.60;;;1.83;;
58878;SDS011;44660;42.664;23.266;2023-08-31T06:37:53;6.68;;;1.80;;
58878;SDS011;44660;42.664;23.266;2023-08-31T06:40:21;13.00;;;4.82;;
58878;SDS011;44660;42.664;23.266;2023-08-31T06:42:46;15.68;;;8.32;;
58878;SDS011;44660;42.664;23.266;2023-08-31T06:45:12;15.40;;;6.47;;
58878;SDS011;44660;42.664;23.266;2023-08-31T06:47:38;9.32;;;4.15;;
58878;SDS011;44660;42.664;23.266;2023-08-31T06:50:03;8.45;;;2.53;;
58878;SDS011;44660;42.664;23.266;2023-08-31T06:52:30;7.25;;;2.88;;
58878;SDS011;44660;42.664;23.266;2023-08-31T06:54:55;6.53;;;2.53;;
58878;SDS011;44660;42.664;23.266;2023-08-31T06:57:24;10.65;;;2.45;;
58878;SDS011;44660;42.664;23.266;2023-08-31T06:59:51;5.00;;;2.10;;
58878;SDS011;44660;42.664;23.266;2023-08-31T07:02:17;5.40;;;2.33;;
58878;SDS011;44660;42.664;23.266;2023-08-31T07:04:44;5.05;;;2.30;;
58878;SDS011;44660;42.664;23.266;2023-08-31T07:07:10;6.07;;;2.05;;
58878;SDS011;44660;42.664;23.266;2023-08-31T07:09:38;7.25;;;2.10;;
58878;SDS011;44660;42.664;23.266;2023-08-31T07:12:05;7.28;;;2.03;;
58878;SDS011;44660;42.664;23.266;2023-08-31T07:14:31;6.43;;;1.85;;
58878;SDS011;44660;42.664;23.266;2023-08-31T07:16:57;8.73;;;1.73;;
58878;SDS011;44660;42.664;23.266;2023-08-31T07:19:22;2.88;;;1.65;;
58878;SDS011;44660;42.664;23.266;2023-08-31T07:21:48;4.97;;;1.60;;
58878;SDS011;44660;42.664;23.266;2023-08-31T07:24:13;3.45;;;1.60;;
58878;SDS011;44660;42.664;23.266;2023-08-31T07:26:39;6.65;;;1.42;;
58878;SDS011;44660;42.664;23.266;2023-08-31T07:29:04;4.05;;;1.13;;
58878;SDS011;44660;42.664;23.266;2023-08-31T07:31:30;6.30;;;1.42;;
58878;SDS011;44660;42.664;23.266;2023-08-31T07:33:56;3.15;;;1.75;;
58878;SDS011;44660;42.664;23.266;2023-08-31T07:36:22;4.75;;;1.30;;
58878;SDS011;44660;42.664;23.266;2023-08-31T07:38:48;3.75;;;1.30;;
58878;SDS011;44660;42.664;23.266;2023-08-31T07:41:14;5.88;;;1.50;;
58878;SDS011;44660;42.664;23.266;2023-08-31T07:43:39;5.18;;;1.60;;
58878;SDS011;44660;42.664;23.266;2023-08-31T07:46:04;3.85;;;1.42;;
58878;SDS011;44660;42.664;23.266;2023-08-31T07:48:30;3.97;;;1.30;;
58878;SDS011;44660;42.664;23.266;2023-08-31T07:50:56;5.55;;;1.83;;
58878;SDS011;44660;42.664;23.266;2023-08-31T07:53:21;7.78;;;1.60;;
58878;SDS011;44660;42.664;23.266;2023-08-31T07:55:54;4.43;;;1.73;;
58878;SDS011;44660;42.664;23.266;2023-08-31T07:58:21;5.22;;;1.60;;
58878;SDS011;44660;42.664;23.266;2023-08-31T08:00:48;9.15;;;1.60;;
58878;SDS011;44660;42.664;23.266;2023-08-31T08:03:13;7.38;;;1.70;;
58878;SDS011;44660;42.664;23.266;2023-08-31T08:05:39;8.48;;;1.95;;
58878;SDS011;44660;42.664;23.266;2023-08-31T08:08:06;7.70;;;2.00;;
58878;SDS011;44660;42.664;23.266;2023-08-31T08:10:31;6.28;;;2.47;;
58878;SDS011;44660;42.664;23.266;2023-08-31T08:12:57;4.82;;;2.80;;
58878;SDS011;44660;42.664;23.266;2023-08-31T08:15:23;5.80;;;2.55;;
58878;SDS011;44660;42.664;23.266;2023-08-31T08:17:49;6.65;;;3.42;;
58878;SDS011;44660;42.664;23.266;2023-08-31T08:20:16;9.43;;;3.33;;
58878;SDS011;44660;42.664;23.266;2023-08-31T08:22:45;7.78;;;4.00;;
58878;SDS011;44660;42.664;23.266;2023-08-31T08:25:14;6.80;;;4.05;;
58878;SDS011;44660;42.664;23.266;2023-08-31T08:27:40;7.65;;;3.00;;
58878;SDS011;44660;42.664;23.266;2023-08-31T08:30:05;6.53;;;3.25;;
58878;SDS011;44660;42.664;23.266;2023-08-31T08:32:32;6.32;;;3.85;;
58878;SDS011;44660;42.664;23.266;2023-08-31T08:34:58;5.38;;;3.53;;
58878;SDS011;44660;42.664;23.266;2023-08-31T08:37:23;6.05;;;3.67;;
58878;SDS011;44660;42.664;23.266;2023-08-31T08:39:50;7.68;;;3.72;;
58878;SDS011;44660;42.664;23.266;2023-08-31T08:42:17;7.50;;;3.28;;
58878;SDS011;44660;42.664;23.266;2023-08-31T08:44:44;9.50;;;3.70;;
58878;SDS011;44660;42.664;23.266;2023-08-31T08:47:10;6.40;;;3.65;;
58878;SDS011;44660;42.664;23.266;2023-08-31T08:49:37;4.97;;;4.00;;
58878;SDS011;44660;42.664;23.266;2023-08-31T08:52:03;7.97;;;3.50;;
58878;SDS011;44660;42.664;23.266;2023-08-31T08:54:29;5.90;;;3.42;;
58878;SDS011;44660;42.664;23.266;2023-08-31T08:56:55;6.30;;;3.65;;
58878;SDS011;44660;42.664;23.266;2023-08-31T08:59:21;6.70;;;4.00;;
58878;SDS011;44660;42.664;23.266;2023-08-31T09:01:47;7.57;;;4.72;;
58878;SDS011;44660;42.664;23.266;2023-08-31T09:04:13;7.95;;;4.20;;
58878;SDS011;44660;42.664;23.266;2023-08-31T09:06:39;6.05;;;3.78;;
58878;SDS011;44660;42.664;23.266;2023-08-31T09:09:06;5.25;;;3.85;;
58878;SDS011;44660;42.664;23.266;2023-08-31T09:13:58;6.60;;;2.90;;
58878;SDS011;44660;42.664;23.266;2023-08-31T09:16:24;6.07;;;3.50;;
58878;SDS011;44660;42.664;23.266;2023-08-31T09:18:53;4.95;;;3.53;;
58878;SDS011;44660;42.664;23.266;2023-08-31T09:21:19;5.57;;;3.60;;
58878;SDS011;44660;42.664;23.266;2023-08-31T09:23:55;7.25;;;4.00;;
58878;SDS011;44660;42.664;23.266;2023-08-31T09:26:23;5.68;;;3.92;;
58878;SDS011;44660;42.664;23.266;2023-08-31T09:28:49;4.85;;;3.17;;
58878;SDS011;44660;42.664;23.266;2023-08-31T09:31:15;6.00;;;3.40;;
58878;SDS011;44660;42.664;23.266;2023-08-31T09:33:42;14.15;;;4.25;;
58878;SDS011;44660;42.664;23.266;2023-08-31T09:36:15;15.10;;;3.85;;
58878;SDS011;44660;42.664;23.266;2023-08-31T09:38:41;9.25;;;3.90;;
58878;SDS011;44660;42.664;23.266;2023-08-31T09:41:11;5.93;;;3.70;;
58878;SDS011;44660;42.664;23.266;2023-08-31T09:43:37;5.85;;;3.40;;
58878;SDS011;44660;42.664;23.266;2023-08-31T09:46:04;4.30;;;3.50;;
58878;SDS011;44660;42.664;23.266;2023-08-31T09:48:30;5.50;;;3.78;;
58878;SDS011;44660;42.664;23.266;2023-08-31T09:50:56;9.98;;;4.13;;
58878;SDS011;44660;42.664;23.266;2023-08-31T09:53:25;5.70;;;3.53;;
58878;SDS011;44660;42.664;23.266;2023-08-31T09:55:54;6.32;;;3.95;;
58878;SDS011;44660;42.664;23.266;2023-08-31T09:58:20;6.68;;;3.95;;
58878;SDS011;44660;42.664;23.266;2023-08-31T10:00:46;6.38;;;4.07;;
58878;SDS011;44660;42.664;23.266;2023-08-31T10:03:14;5.68;;;3.85;;
58878;SDS011;44660;42.664;23.266;2023-08-31T10:05:41;9.13;;;4.78;;
58878;SDS011;44660;42.664;23.266;2023-08-31T10:08:13;6.85;;;3.78;;
58878;SDS011;44660;42.664;23.266;2023-08-31T10:10:39;13.32;;;4.50;;
58878;SDS011;44660;42.664;23.266;2023-08-31T10:13:05;7.35;;;3.75;;
58878;SDS011;44660;42.664;23.266;2023-08-31T10:15:31;6.38;;;4.28;;
58878;SDS011;44660;42.664;23.266;2023-08-31T10:17:59;21.48;;;4.40;;
58878;SDS011;44660;42.664;23.266;2023-08-31T10:20:25;10.50;;;4.55;;
58878;SDS011;44660;42.664;23.266;2023-08-31T10:22:54;7.88;;;4.18;;
58878;SDS011;44660;42.664;23.266;2023-08-31T10:25:21;6.33;;;4.00;;
58878;SDS011;44660;42.664;23.266;2023-08-31T10:27:46;5.85;;;3.70;;
58878;SDS011;44660;42.664;23.266;2023-08-31T10:43:44;5.38;;;3.85;;
58878;SDS011;44660;42.664;23.266;2023-08-31T10:48:52;9.40;;;3.70;;
58878;SDS011;44660;42.664;23.266;2023-08-31T10:51:23;4.78;;;3.25;;
58878;SDS011;44660;42.664;23.266;2023-08-31T10:54:03;5.30;;;3.05;;
58878;SDS011;44660;42.664;23.266;2023-08-31T10:56:30;4.80;;;3.17;;
58878;SDS011;44660;42.664;23.266;2023-08-31T10:58:59;6.40;;;3.30;;
58878;SDS011;44660;42.664;23.266;2023-08-31T11:04:28;6.72;;;3.80;;
58878;SDS011;44660;42.664;23.266;2023-08-31T11:07:19;8.15;;;4.15;;
58878;SDS011;44660;42.664;23.266;2023-08-31T11:09:48;5.47;;;3.78;;
58878;SDS011;44660;42.664;23.266;2023-08-31T11:12:14;7.80;;;3.72;;
58878;SDS011;44660;42.664;23.266;2023-08-31T11:14:39;6.63;;;3.45;;
58878;SDS011;44660;42.664;23.266;2023-08-31T11:17:06;5.68;;;2.97;;
58878;SDS011;44660;42.664;23.266;2023-08-31T11:19:32;7.28;;;3.63;;
58878;SDS011;44660;42.664;23.266;2023-08-31T11:21:59;6.43;;;3.38;;
58878;SDS011;44660;42.664;23.266;2023-08-31T11:24:27;6.15;;;3.40;;
58878;SDS011;44660;42.664;23.266;2023-08-31T11:26:57;4.75;;;2.90;;
58878;SDS011;44660;42.664;23.266;2023-08-31T11:29:23;5.35;;;2.80;;
58878;SDS011;44660;42.664;23.266;2023-08-31T11:31:48;8.80;;;5.47;;
58878;SDS011;44660;42.664;23.266;2023-08-31T11:34:14;4.85;;;3.90;;
58878;SDS011;44660;42.664;23.266;2023-08-31T11:36:41;6.47;;;3.95;;
58878;SDS011;44660;42.664;23.266;2023-08-31T11:39:08;4.10;;;2.88;;
58878;SDS011;44660;42.664;23.266;2023-08-31T11:41:35;5.32;;;3.20;;
58878;SDS011;44660;42.664;23.266;2023-08-31T11:44:03;5.20;;;2.80;;
58878;SDS011;44660;42.664;23.266;2023-08-31T11:46:30;5.30;;;2.70;;
58878;SDS011;44660;42.664;23.266;2023-08-31T11:48:56;5.60;;;3.10;;
58878;SDS011;44660;42.664;23.266;2023-08-31T11:51:24;4.75;;;2.85;;
58878;SDS011;44660;42.664;23.266;2023-08-31T11:53:50;7.07;;;3.05;;
58878;SDS011;44660;42.664;23.266;2023-08-31T11:56:15;5.55;;;2.92;;
58878;SDS011;44660;42.664;23.266;2023-08-31T11:58:41;6.80;;;2.88;;
58878;SDS011;44660;42.664;23.266;2023-08-31T12:01:17;8.90;;;3.20;;
58878;SDS011;44660;42.664;23.266;2023-08-31T12:03:45;5.68;;;3.20;;
58878;SDS011;44660;42.664;23.266;2023-08-31T12:06:10;8.35;;;2.88;;
58878;SDS011;44660;42.664;23.266;2023-08-31T12:08:36;6.05;;;3.17;;
58878;SDS011;44660;42.664;23.266;2023-08-31T12:11:03;8.25;;;2.80;;
58878;SDS011;44660;42.664;23.266;2023-08-31T12:13:31;7.32;;;2.75;;
58878;SDS011;44660;42.664;23.266;2023-08-31T12:15:57;6.95;;;3.33;;
58878;SDS011;44660;42.664;23.266;2023-08-31T12:18:22;5.55;;;2.83;;
58878;SDS011;44660;42.664;23.266;2023-08-31T12:20:51;8.48;;;2.95;;
58878;SDS011;44660;42.664;23.266;2023-08-31T12:23:18;6.13;;;2.78;;
58878;SDS011;44660;42.664;23.266;2023-08-31T12:28:13;7.22;;;2.67;;
58878;SDS011;44660;42.664;23.266;2023-08-31T12:30:41;6.70;;;2.83;;
58878;SDS011;44660;42.664;23.266;2023-08-31T12:33:09;5.97;;;3.10;;
58878;SDS011;44660;42.664;23.266;2023-08-31T12:35:35;7.20;;;3.03;;
58878;SDS011;44660;42.664;23.266;2023-08-31T12:38:00;9.32;;;2.40;;
58878;SDS011;44660;42.664;23.266;2023-08-31T12:40:27;8.48;;;3.03;;
58878;SDS011;44660;42.664;23.266;2023-08-31T12:42:52;5.03;;;2.58;;
58878;SDS011;44660;42.664;23.266;2023-08-31T12:45:18;5.82;;;2.38;;
58878;SDS011;44660;42.664;23.266;2023-08-31T12:47:44;9.25;;;2.58;;
58878;SDS011;44660;42.664;23.266;2023-08-31T12:50:09;6.65;;;2.70;;
58878;SDS011;44660;42.664;23.266;2023-08-31T12:52:35;7.60;;;2.38;;
58878;SDS011;44660;42.664;23.266;2023-08-31T12:55:00;3.65;;;2.67;;
58878;SDS011;44660;42.664;23.266;2023-08-31T12:57:26;9.50;;;2.92;;
58878;SDS011;44660;42.664;23.266;2023-08-31T12:59:52;5.18;;;2.53;;
58878;SDS011;44660;42.664;23.266;2023-08-31T13:02:17;4.97;;;2.72;;
58878;SDS011;44660;42.664;23.266;2023-08-31T13:04:45;8.90;;;3.00;;
58878;SDS011;44660;42.664;23.266;2023-08-31T13:07:10;4.85;;;2.50;;
58878;SDS011;44660;42.664;23.266;2023-08-31T13:09:36;4.97;;;2.30;;
58878;SDS011;44660;42.664;23.266;2023-08-31T13:12:01;8.50;;;2.55;;
58878;SDS011;44660;42.664;23.266;2023-08-31T13:14:27;4.28;;;2.60;;
58878;SDS011;44660;42.664;23.266;2023-08-31T13:16:53;6.03;;;2.80;;
58878;SDS011;44660;42.664;23.266;2023-08-31T13:19:18;4.93;;;2.53;;
58878;SDS011;44660;42.664;23.266;2023-08-31T13:21:44;3.72;;;2.25;;
58878;SDS011;44660;42.664;23.266;2023-08-31T13:24:10;5.82;;;2.92;;
58878;SDS011;44660;42.664;23.266;2023-08-31T13:26:36;5.00;;;2.22;;
58878;SDS011;44660;42.664;23.266;2023-08-31T13:29:01;3.53;;;2.33;;
58878;SDS011;44660;42.664;23.266;2023-08-31T13:31:27;5.60;;;3.03;;
58878;SDS011;44660;42.664;23.266;2023-08-31T13:33:53;3.65;;;2.38;;
58878;SDS011;44660;42.664;23.266;2023-08-31T13:36:19;4.97;;;2.00;;
58878;SDS011;44660;42.664;23.266;2023-08-31T13:38:44;4.32;;;2.20;;
58878;SDS011;44660;42.664;23.266;2023-08-31T13:41:10;6.35;;;2.65;;
58878;SDS011;44660;42.664;23.266;2023-08-31T13:43:35;3.67;;;2.13;;
58878;SDS011;44660;42.664;23.266;2023-08-31T13:46:01;9.88;;;2.58;;
58878;SDS011;44660;42.664;23.266;2023-08-31T13:48:27;5.80;;;2.25;;
58878;SDS011;44660;42.664;23.266;2023-08-31T13:50:52;5.72;;;2.28;;
58878;SDS011;44660;42.664;23.266;2023-08-31T13:53:17;3.38;;;2.33;;
58878;SDS011;44660;42.664;23.266;2023-08-31T13:55:43;4.25;;;2.20;;
58878;SDS011;44660;42.664;23.266;2023-08-31T13:58:09;5.35;;;2.45;;
58878;SDS011;44660;42.664;23.266;2023-08-31T14:00:35;4.10;;;2.65;;
58878;SDS011;44660;42.664;23.266;2023-08-31T14:03:01;6.45;;;2.80;;
58878;SDS011;44660;42.664;23.266;2023-08-31T14:05:29;4.55;;;2.50;;
58878;SDS011;44660;42.664;23.266;2023-08-31T14:07:55;5.65;;;2.85;;
58878;SDS011;44660;42.664;23.266;2023-08-31T14:10:21;6.80;;;2.42;;
58878;SDS011;44660;42.664;23.266;2023-08-31T14:12:47;7.60;;;2.47;;
58878;SDS011;44660;42.664;23.266;2023-08-31T14:15:12;6.15;;;2.80;;
58878;SDS011;44660;42.664;23.266;2023-08-31T14:17:38;6.88;;;2.80;;
58878;SDS011;44660;42.664;23.266;2023-08-31T14:20:04;11.55;;;2.60;;
58878;SDS011;44660;42.664;23.266;2023-08-31T14:22:32;6.20;;;2.92;;
58878;SDS011;44660;42.664;23.266;2023-08-31T14:24:58;7.55;;;3.17;;
58878;SDS011;44660;42.664;23.266;2023-08-31T14:27:24;11.30;;;4.07;;
58878;SDS011;44660;42.664;23.266;2023-08-31T14:29:50;9.23;;;3.00;;
58878;SDS011;44660;42.664;23.266;2023-08-31T14:32:16;5.60;;;2.63;;
58878;SDS011;44660;42.664;23.266;2023-08-31T14:34:41;6.55;;;2.60;;
58878;SDS011;44660;42.664;23.266;2023-08-31T14:37:07;5.65;;;2.65;;
58878;SDS011;44660;42.664;23.266;2023-08-31T14:39:33;5.47;;;2.33;;
58878;SDS011;44660;42.664;23.266;2023-08-31T14:41:58;5.07;;;2.28;;
58878;SDS011;44660;42.664;23.266;2023-08-31T14:44:24;5.13;;;2.40;;
58878;SDS011;44660;42.664;23.266;2023-08-31T14:46:50;5.50;;;2.28;;
58878;SDS011;44660;42.664;23.266;2023-08-31T14:49:17;4.72;;;2.50;;
58878;SDS011;44660;42.664;23.266;2023-08-31T14:51:42;6.55;;;2.65;;
58878;SDS011;44660;42.664;23.266;2023-08-31T14:54:09;8.82;;;2.45;;
58878;SDS011;44660;42.664;23.266;2023-08-31T14:56:34;4.07;;;2.20;;
58878;SDS011;44660;42.664;23.266;2023-08-31T14:59:00;5.00;;;2.70;;
58878;SDS011;44660;42.664;23.266;2023-08-31T15:01:25;11.02;;;3.45;;
58878;SDS011;44660;42.664;23.266;2023-08-31T15:03:51;7.28;;;2.95;;
58878;SDS011;44660;42.664;23.266;2023-08-31T15:06:16;8.20;;;2.90;;